Mariner Of The Seas — C6FV9 — position and weather

sailwx.info

Track history (hours):
 
Tides and Currents Weather Stations Pressure Air Temp Water Temp Dewpoint Dewpoint Depression Visibility Wind Speed Wind Dir Waves Ship Positions

Mariner Of The Seas

Operator: Royal Caribbean Cruises Ltd

Last reported at 2017-Sep-26 14:29 UTC. Time now 2017-Sep-26 14:54 UTC.
Position N 05°31' E 100°18'.

Type: Passenger vessel. MMSI: 311493000.

Date/timePositionNaut miles runAvg speedWind from/ knotsBaromVisibWave heightAir tempDewpointWater temp
2017-Sep-26 14:29N 05°31' E 100°18'611.8
2017-Sep-26 14:00N 05°26' E 100°21'1 0.7
2017-Sep-26 12:23N 05°25' E 100°21'0 0.0
2017-Sep-26 11:53N 05°25' E 100°21'0 0.0
2017-Sep-26 11:29N 05°25' E 100°21'0 0.0
2017-Sep-26 10:53N 05°25' E 100°21'0 0.0
2017-Sep-26 10:17N 05°25' E 100°21'0 0.0
2017-Sep-26 09:59N 05°25' E 100°21'0 0.0
2017-Sep-26 06:17N 05°25' E 100°21'0 0.3
2017-Sep-26 06:00N 05°25' E 100°21'510.2
2017-Sep-26 05:30N 05°30' E 100°20'33130.7
2017-Sep-25 18:44N 01°16' E 103°52'0 0.0
2017-Sep-25 18:19N 01°16' E 103°52'0 0.0
2017-Sep-25 17:54N 01°16' E 103°52'0 0.0
2017-Sep-25 17:28N 01°16' E 103°52'0 0.0
2017-Sep-25 16:39N 01°16' E 103°52'0 0.0
2017-Sep-25 16:13N 01°16' E 103°52'0 0.0
2017-Sep-25 16:00N 01°16' E 103°52'0 0.0
2017-Sep-25 15:22N 01°16' E 103°52'0 0.0
2017-Sep-25 14:57N 01°16' E 103°52'0 0.0
2017-Sep-25 13:42N 01°16' E 103°52'0 0.0
2017-Sep-25 13:28N 01°16' E 103°52'0 0.0
2017-Sep-25 12:28N 01°16' E 103°52'3319.8
2017-Sep-25 10:50N 01°19' E 103°19'619.7
2017-Sep-25 10:30N 01°15' E 103°24'1019.3
2017-Sep-25 10:00N 01°13' E 103°34'918.6
2017-Sep-25 09:31N 01°09' E 103°42'816.7
2017-Sep-25 09:00N 01°12' E 103°50'4 8.6
2017-Sep-25 08:30N 01°16' E 103°52'0 0.6
2017-Sep-25 07:56N 01°16' E 103°52'0 0.0
2017-Sep-25 07:29N 01°16' E 103°52'0 0.0
2017-Sep-25 06:56N 01°16' E 103°52'0 0.0
2017-Sep-25 06:26N 01°16' E 103°52'0 0.0
2017-Sep-25 05:53N 01°16' E 103°52'0 0.0
2017-Sep-25 05:29N 01°16' E 103°52'0 0.0
2017-Sep-25 04:56N 01°16' E 103°52'0 0.0
2017-Sep-25 04:29N 01°16' E 103°52'0 0.0
2017-Sep-25 03:59N 01°16' E 103°52'0 0.0
2017-Sep-25 03:29N 01°16' E 103°52'0 0.0
2017-Sep-25 02:50N 01°16' E 103°52'0 0.0
2017-Sep-25 02:23N 01°16' E 103°52'0 0.0
2017-Sep-25 01:56N 01°16' E 103°52'0 0.0
2017-Sep-25 01:29N 01°16' E 103°52'0 0.0
2017-Sep-25 00:59N 01°16' E 103°52'0 0.0
2017-Sep-25 00:14N 01°16' E 103°52'0 0.0
2017-Sep-24 23:53N 01°16' E 103°52'1 1.9
2017-Sep-24 23:30N 01°15' E 103°52'4 7.9
2017-Sep-24 23:00N 01°11' E 103°51'510.6
2017-Sep-24 22:31N 01°09' E 103°46'611.3
2017-Sep-24 22:01N 01°04' E 103°42'510.4
2017-Sep-24 21:31N 01°03' E 103°37'611.5
2017-Sep-24 21:00N 01°06' E 103°32'611.4
2017-Sep-24 20:29N 01°09' E 103°27'611.5
2017-Sep-24 20:00N 01°12' E 103°23'611.1
2017-Sep-24 19:30N 01°16' E 103°19'  
2017-Sep-22 01:56N 01°16' E 103°52'0 0.0
2017-Sep-22 01:29N 01°16' E 103°52'0 0.0
2017-Sep-22 00:56N 01°16' E 103°52'0 0.0
2017-Sep-22 00:29N 01°16' E 103°52'0 0.0
2017-Sep-21 23:59N 01°16' E 103°52'2 5.1
2017-Sep-21 23:30N 01°14' E 103°53'4 7.6
2017-Sep-21 23:00N 01°11' E 103°50'816.5
2017-Sep-21 22:31N 01°06' E 103°44'714.9
2017-Sep-21 22:00N 01°04' E 103°37'815.3
2017-Sep-21 21:30N 01°08' E 103°30'815.4
2017-Sep-21 21:00N 01°12' E 103°23'815.3
2017-Sep-21 20:31N 01°17' E 103°18'48811.7
2017-Sep-20 02:45N 07°48' E 098°25'312.8
2017-Sep-20 02:30N 07°45' E 098°27'714.6
2017-Sep-20 02:00N 07°39' E 098°30'14114.9
2017-Sep-19 16:31N 05°45' E 099°53'014.7
2017-Sep-19 16:29N 05°44' E 099°54'714.4
2017-Sep-19 15:59N 05°41' E 100°00'714.7
2017-Sep-19 15:29N 05°38' E 100°07'714.3
2017-Sep-19 14:59N 05°35' E 100°13'613.3
2017-Sep-19 14:30N 05°31' E 100°18'611.9
2017-Sep-19 14:00N 05°26' E 100°21'1 1.0
2017-Sep-19 13:26N 05°25' E 100°21'0 0.0
2017-Sep-19 12:56N 05°25' E 100°21'0 0.1
2017-Sep-19 12:26N 05°25' E 100°21'0 0.0
2017-Sep-19 11:56N 05°25' E 100°21'0 0.0
2017-Sep-19 11:30N 05°25' E 100°21'0 0.0
2017-Sep-19 11:00N 05°25' E 100°21'0 0.1
2017-Sep-19 10:30N 05°25' E 100°21'0 0.0
2017-Sep-19 10:00N 05°25' E 100°21'0 0.0
2017-Sep-19 09:30N 05°25' E 100°21'0 0.0
2017-Sep-19 09:00N 05°25' E 100°21'0 0.0
2017-Sep-19 08:30N 05°25' E 100°21'0 0.0
2017-Sep-19 08:00N 05°25' E 100°21'0 0.0
2017-Sep-19 07:30N 05°25' E 100°21'0 0.0
2017-Sep-19 07:00N 05°25' E 100°21'0 0.0
2017-Sep-19 06:30N 05°25' E 100°21'1 2.0
2017-Sep-19 06:00N 05°26' E 100°21'713.1
2017-Sep-19 05:30N 05°32' E 100°17'2210.8
2017-Sep-19 03:29N 05°15' E 100°04'29718.2
2017-Sep-18 11:08N 01°24' E 103°12'619.8
2017-Sep-18 10:49N 01°20' E 103°17'720.5
2017-Sep-18 10:30N 01°16' E 103°22'1021.2
2017-Sep-18 10:00N 01°12' E 103°32'1020.8
2017-Sep-18 09:31N 01°09' E 103°41'1019.5
2017-Sep-18 09:00N 01°12' E 103°51'4 7.3
2017-Sep-18 08:30N 01°16' E 103°52'0 0.7
2017-Sep-18 07:58N 01°16' E 103°52'0 0.0
2017-Sep-18 07:22N 01°16' E 103°52'0 0.0
2017-Sep-18 06:58N 01°16' E 103°52'0 0.0
2017-Sep-18 06:28N 01°16' E 103°52'0 0.0
2017-Sep-18 05:58N 01°16' E 103°52'0 0.0
2017-Sep-18 05:28N 01°16' E 103°52'0 0.0
2017-Sep-18 04:58N 01°16' E 103°52'0 0.0
2017-Sep-18 04:28N 01°16' E 103°52'0 0.0
2017-Sep-18 03:58N 01°16' E 103°52'0 0.0
2017-Sep-18 03:28N 01°16' E 103°52'0 0.0
2017-Sep-18 02:55N 01°16' E 103°52'0 0.0
2017-Sep-18 02:28N 01°16' E 103°52'0 0.0
2017-Sep-18 01:58N 01°16' E 103°52'0 0.0
2017-Sep-18 01:28N 01°16' E 103°52'0 0.0
2017-Sep-18 00:52N 01°16' E 103°52'0 0.0
2017-Sep-18 00:28N 01°16' E 103°52'0 0.0
2017-Sep-17 23:52N 01°16' E 103°52'2 5.3
2017-Sep-17 23:31N 01°14' E 103°52'3 5.9
2017-Sep-17 23:00N 01°12' E 103°51'611.4
2017-Sep-17 22:30N 01°09' E 103°46'611.2
2017-Sep-17 22:00N 01°05' E 103°42'611.2
2017-Sep-17 21:30N 01°04' E 103°36'611.9
2017-Sep-17 20:59N 01°07' E 103°31'611.9
2017-Sep-17 20:30N 01°10' E 103°26'612.1
2017-Sep-17 19:59N 01°14' E 103°21'612.0
2017-Sep-17 19:30N 01°17' E 103°17'  
Track history (hours):
 
Tides and Currents Weather Stations Pressure Air Temp Water Temp Dewpoint Dewpoint Depression Visibility Wind Speed Wind Dir Waves Ship Positions

Mariner Of The Seas

Operator: Royal Caribbean Cruises Ltd

Last reported at 2017-Sep-26 14:29 UTC. Time now 2017-Sep-26 14:54 UTC.
Position N 05°31' E 100°18'.

Type: Passenger vessel. MMSI: 311493000.

Date/timePositionNaut miles runAvg speedWind from/ knotsBaromVisibWave heightAir tempDewpointWater temp
2017-Sep-26 14:29N 05°31' E 100°18'611.8
2017-Sep-26 14:00N 05°26' E 100°21'1 0.7
2017-Sep-26 12:23N 05°25' E 100°21'0 0.0
2017-Sep-26 11:53N 05°25' E 100°21'0 0.0
2017-Sep-26 11:29N 05°25' E 100°21'0 0.0
2017-Sep-26 10:53N 05°25' E 100°21'0 0.0
2017-Sep-26 10:17N 05°25' E 100°21'0 0.0
2017-Sep-26 09:59N 05°25' E 100°21'0 0.0
2017-Sep-26 06:17N 05°25' E 100°21'0 0.3
2017-Sep-26 06:00N 05°25' E 100°21'510.2
2017-Sep-26 05:30N 05°30' E 100°20'33130.7
2017-Sep-25 18:44N 01°16' E 103°52'0 0.0
2017-Sep-25 18:19N 01°16' E 103°52'0 0.0
2017-Sep-25 17:54N 01°16' E 103°52'0 0.0
2017-Sep-25 17:28N 01°16' E 103°52'0 0.0
2017-Sep-25 16:39N 01°16' E 103°52'0 0.0
2017-Sep-25 16:13N 01°16' E 103°52'0 0.0
2017-Sep-25 16:00N 01°16' E 103°52'0 0.0
2017-Sep-25 15:22N 01°16' E 103°52'0 0.0
2017-Sep-25 14:57N 01°16' E 103°52'0 0.0
2017-Sep-25 13:42N 01°16' E 103°52'0 0.0
2017-Sep-25 13:28N 01°16' E 103°52'0 0.0
2017-Sep-25 12:28N 01°16' E 103°52'3319.8
2017-Sep-25 10:50N 01°19' E 103°19'619.7
2017-Sep-25 10:30N 01°15' E 103°24'1019.3
2017-Sep-25 10:00N 01°13' E 103°34'918.6
2017-Sep-25 09:31N 01°09' E 103°42'816.7
2017-Sep-25 09:00N 01°12' E 103°50'4 8.6
2017-Sep-25 08:30N 01°16' E 103°52'0 0.6
2017-Sep-25 07:56N 01°16' E 103°52'0 0.0
2017-Sep-25 07:29N 01°16' E 103°52'0 0.0
2017-Sep-25 06:56N 01°16' E 103°52'0 0.0
2017-Sep-25 06:26N 01°16' E 103°52'0 0.0
2017-Sep-25 05:53N 01°16' E 103°52'0 0.0
2017-Sep-25 05:29N 01°16' E 103°52'0 0.0
2017-Sep-25 04:56N 01°16' E 103°52'0 0.0
2017-Sep-25 04:29N 01°16' E 103°52'0 0.0
2017-Sep-25 03:59N 01°16' E 103°52'0 0.0
2017-Sep-25 03:29N 01°16' E 103°52'0 0.0
2017-Sep-25 02:50N 01°16' E 103°52'0 0.0
2017-Sep-25 02:23N 01°16' E 103°52'0 0.0
2017-Sep-25 01:56N 01°16' E 103°52'0 0.0
2017-Sep-25 01:29N 01°16' E 103°52'0 0.0
2017-Sep-25 00:59N 01°16' E 103°52'0 0.0
2017-Sep-25 00:14N 01°16' E 103°52'0 0.0
2017-Sep-24 23:53N 01°16' E 103°52'1 1.9
2017-Sep-24 23:30N 01°15' E 103°52'4 7.9
2017-Sep-24 23:00N 01°11' E 103°51'510.6
2017-Sep-24 22:31N 01°09' E 103°46'611.3
2017-Sep-24 22:01N 01°04' E 103°42'510.4
2017-Sep-24 21:31N 01°03' E 103°37'611.5
2017-Sep-24 21:00N 01°06' E 103°32'611.4
2017-Sep-24 20:29N 01°09' E 103°27'611.5
2017-Sep-24 20:00N 01°12' E 103°23'611.1
2017-Sep-24 19:30N 01°16' E 103°19'  
2017-Sep-22 01:56N 01°16' E 103°52'0 0.0
2017-Sep-22 01:29N 01°16' E 103°52'0 0.0
2017-Sep-22 00:56N 01°16' E 103°52'0 0.0
2017-Sep-22 00:29N 01°16' E 103°52'0 0.0
2017-Sep-21 23:59N 01°16' E 103°52'2 5.1
2017-Sep-21 23:30N 01°14' E 103°53'4 7.6
2017-Sep-21 23:00N 01°11' E 103°50'816.5
2017-Sep-21 22:31N 01°06' E 103°44'714.9
2017-Sep-21 22:00N 01°04' E 103°37'815.3
2017-Sep-21 21:30N 01°08' E 103°30'815.4
2017-Sep-21 21:00N 01°12' E 103°23'815.3
2017-Sep-21 20:31N 01°17' E 103°18'48811.7
2017-Sep-20 02:45N 07°48' E 098°25'312.8
2017-Sep-20 02:30N 07°45' E 098°27'714.6
2017-Sep-20 02:00N 07°39' E 098°30'14114.9
2017-Sep-19 16:31N 05°45' E 099°53'014.7
2017-Sep-19 16:29N 05°44' E 099°54'714.4
2017-Sep-19 15:59N 05°41' E 100°00'714.7
2017-Sep-19 15:29N 05°38' E 100°07'714.3
2017-Sep-19 14:59N 05°35' E 100°13'613.3
2017-Sep-19 14:30N 05°31' E 100°18'611.9
2017-Sep-19 14:00N 05°26' E 100°21'1 1.0
2017-Sep-19 13:26N 05°25' E 100°21'0 0.0
2017-Sep-19 12:56N 05°25' E 100°21'0 0.1
2017-Sep-19 12:26N 05°25' E 100°21'0 0.0
2017-Sep-19 11:56N 05°25' E 100°21'0 0.0
2017-Sep-19 11:30N 05°25' E 100°21'0 0.0
2017-Sep-19 11:00N 05°25' E 100°21'0 0.1
2017-Sep-19 10:30N 05°25' E 100°21'0 0.0
2017-Sep-19 10:00N 05°25' E 100°21'0 0.0
2017-Sep-19 09:30N 05°25' E 100°21'0 0.0
2017-Sep-19 09:00N 05°25' E 100°21'0 0.0
2017-Sep-19 08:30N 05°25' E 100°21'0 0.0
2017-Sep-19 08:00N 05°25' E 100°21'0 0.0
2017-Sep-19 07:30N 05°25' E 100°21'0 0.0
2017-Sep-19 07:00N 05°25' E 100°21'0 0.0
2017-Sep-19 06:30N 05°25' E 100°21'1 2.0
2017-Sep-19 06:00N 05°26' E 100°21'713.1
2017-Sep-19 05:30N 05°32' E 100°17'2210.8
2017-Sep-19 03:29N 05°15' E 100°04'29718.2
2017-Sep-18 11:08N 01°24' E 103°12'619.8
2017-Sep-18 10:49N 01°20' E 103°17'720.5
2017-Sep-18 10:30N 01°16' E 103°22'1021.2
2017-Sep-18 10:00N 01°12' E 103°32'1020.8
2017-Sep-18 09:31N 01°09' E 103°41'1019.5
2017-Sep-18 09:00N 01°12' E 103°51'4 7.3
2017-Sep-18 08:30N 01°16' E 103°52'0 0.7
2017-Sep-18 07:58N 01°16' E 103°52'0 0.0
2017-Sep-18 07:22N 01°16' E 103°52'0 0.0
2017-Sep-18 06:58N 01°16' E 103°52'0 0.0
2017-Sep-18 06:28N 01°16' E 103°52'0 0.0
2017-Sep-18 05:58N 01°16' E 103°52'0 0.0
2017-Sep-18 05:28N 01°16' E 103°52'0 0.0
2017-Sep-18 04:58N 01°16' E 103°52'0 0.0
2017-Sep-18 04:28N 01°16' E 103°52'0 0.0
2017-Sep-18 03:58N 01°16' E 103°52'0 0.0
2017-Sep-18 03:28N 01°16' E 103°52'0 0.0
2017-Sep-18 02:55N 01°16' E 103°52'0 0.0
2017-Sep-18 02:28N 01°16' E 103°52'0 0.0
2017-Sep-18 01:58N 01°16' E 103°52'0 0.0
2017-Sep-18 01:28N 01°16' E 103°52'0 0.0
2017-Sep-18 00:52N 01°16' E 103°52'0 0.0
2017-Sep-18 00:28N 01°16' E 103°52'0 0.0
2017-Sep-17 23:52N 01°16' E 103°52'2 5.3
2017-Sep-17 23:31N 01°14' E 103°52'3 5.9
2017-Sep-17 23:00N 01°12' E 103°51'611.4
2017-Sep-17 22:30N 01°09' E 103°46'611.2
2017-Sep-17 22:00N 01°05' E 103°42'611.2
2017-Sep-17 21:30N 01°04' E 103°36'611.9
2017-Sep-17 20:59N 01°07' E 103°31'611.9
2017-Sep-17 20:30N 01°10' E 103°26'612.1
2017-Sep-17 19:59N 01°14' E 103°21'612.0
2017-Sep-17 19:30N 01°17' E 103°17'  

Dump ship's entire track history